createdAt,value
2018-10-01T00:01:22.594Z,17.10
2018-10-01T00:03:52.400Z,16.90
2018-10-01T00:06:22.279Z,20.17
2018-10-01T00:08:52.839Z,18.20
2018-10-01T00:11:23.304Z,19.83
2018-10-01T00:13:53.177Z,19.27
2018-10-01T00:16:22.937Z,18.77
2018-10-01T00:18:52.637Z,21.53
2018-10-01T00:21:27.764Z,22.30
2018-10-01T00:23:58.409Z,22.30
2018-10-01T00:26:28.150Z,24.57
2018-10-01T00:28:57.888Z,22.03
2018-10-01T00:31:27.630Z,20.90
2018-10-01T00:33:57.425Z,24.50
2018-10-01T00:36:27.263Z,20.37
2018-10-01T00:38:57.010Z,21.00
2018-10-01T00:41:26.748Z,22.60
2018-10-01T00:43:56.537Z,24.07
2018-10-01T00:46:26.266Z,25.10
2018-10-01T00:48:55.931Z,19.00
2018-10-01T00:51:25.637Z,17.87
2018-10-01T00:53:55.354Z,17.93
2018-10-01T00:56:25.034Z,21.00
2018-10-01T00:58:54.749Z,18.70
2018-10-01T01:01:24.672Z,15.60
2018-10-01T01:03:54.385Z,17.73
2018-10-01T01:06:24.122Z,18.03
2018-10-01T01:08:53.851Z,17.87
2018-10-01T01:11:23.514Z,17.47
2018-10-01T01:13:53.214Z,16.83
2018-10-01T01:16:22.942Z,16.50
2018-10-01T01:18:52.897Z,18.30
2018-10-01T01:21:22.609Z,17.20
2018-10-01T01:23:52.606Z,17.13
2018-10-01T01:26:22.353Z,16.17
2018-10-01T01:28:52.058Z,17.87
2018-10-01T01:31:21.835Z,17.17
2018-10-01T01:33:51.534Z,18.73
2018-10-01T01:36:21.265Z,16.83
2018-10-01T01:38:50.966Z,18.40
2018-10-01T01:41:20.706Z,17.50
2018-10-01T01:43:50.417Z,18.13
2018-10-01T01:46:20.326Z,16.80
2018-10-01T01:48:50.018Z,17.70
2018-10-01T01:51:19.875Z,17.70
2018-10-01T01:53:49.604Z,17.57
2018-10-01T01:56:19.555Z,18.63
2018-10-01T01:58:49.366Z,18.17
2018-10-01T02:01:19.230Z,19.80
2018-10-01T02:03:48.961Z,20.17
2018-10-01T02:06:18.647Z,21.17
2018-10-01T02:08:48.409Z,21.63
2018-10-01T02:11:18.132Z,22.10
2018-10-01T02:13:47.819Z,22.97
2018-10-01T02:16:17.537Z,22.23
2018-10-01T02:18:47.227Z,23.33
2018-10-01T02:21:16.953Z,24.50
2018-10-01T02:23:46.683Z,24.33
2018-10-01T02:26:16.452Z,23.30
2018-10-01T02:28:46.223Z,23.50
2018-10-01T02:31:15.951Z,23.50
2018-10-01T02:33:45.665Z,24.33
2018-10-01T02:36:15.490Z,23.13
2018-10-01T02:38:45.211Z,25.83
2018-10-01T02:41:14.937Z,22.13
2018-10-01T02:43:44.727Z,24.30
2018-10-01T02:46:14.472Z,28.53
2018-10-01T02:48:44.287Z,25.13
2018-10-01T02:51:15.703Z,26.80
2018-10-01T02:53:50.927Z,25.07
2018-10-01T02:56:20.652Z,26.83
2018-10-01T02:58:50.391Z,24.90
2018-10-01T03:01:20.075Z,24.80
2018-10-01T03:03:49.818Z,25.50
2018-10-01T03:06:19.567Z,24.20
2018-10-01T03:08:50.302Z,27.80
2018-10-01T03:11:20.019Z,27.43
2018-10-01T03:13:49.695Z,27.40
2018-10-01T03:16:19.448Z,22.87
2018-10-01T03:18:49.902Z,23.83
2018-10-01T03:21:19.617Z,24.10
2018-10-01T03:23:49.322Z,24.90
2018-10-01T03:26:18.991Z,23.57
2018-10-01T03:28:48.742Z,26.40
2018-10-01T03:31:18.623Z,24.70
2018-10-01T03:33:48.372Z,22.80
2018-10-01T03:36:18.220Z,21.60
2018-10-01T03:38:48.583Z,24.17
2018-10-01T03:41:19.197Z,22.60
2018-10-01T03:43:48.934Z,23.57
2018-10-01T03:46:18.677Z,25.00
2018-10-01T03:48:48.423Z,22.77
2018-10-01T03:51:18.149Z,26.67
2018-10-01T03:53:47.844Z,27.20
2018-10-01T03:56:17.576Z,25.23
2018-10-01T03:58:47.303Z,22.40
2018-10-01T04:01:17.843Z,23.07
2018-10-01T04:03:47.922Z,23.63
2018-10-01T04:06:17.645Z,24.77
2018-10-01T04:08:49.213Z,24.27
2018-10-01T04:11:18.938Z,25.60
2018-10-01T04:13:49.155Z,23.90
2018-10-01T04:16:19.021Z,23.17
2018-10-01T04:18:48.709Z,22.20
2018-10-01T04:21:18.466Z,22.20
2018-10-01T04:23:48.550Z,23.33
2018-10-01T04:26:18.267Z,24.47
2018-10-01T04:28:48.064Z,21.23
2018-10-01T04:31:17.795Z,21.00
2018-10-01T04:33:47.475Z,18.63
2018-10-01T04:36:17.281Z,19.90
2018-10-01T04:38:47.635Z,19.30
2018-10-01T04:41:17.431Z,17.50
2018-10-01T04:43:47.183Z,16.67
2018-10-01T04:46:16.981Z,14.67
2018-10-01T04:48:46.750Z,12.20
2018-10-01T04:51:16.710Z,9.30
2018-10-01T04:53:46.421Z,6.40
2018-10-01T04:56:16.930Z,7.83
2018-10-01T04:58:46.650Z,7.47
2018-10-01T05:01:16.384Z,5.70
2018-10-01T05:03:46.098Z,5.87
2018-10-01T05:06:17.255Z,5.80
2018-10-01T05:08:47.801Z,6.87
2018-10-01T05:11:18.673Z,4.90
2018-10-01T05:13:48.448Z,6.07
2018-10-01T05:16:18.367Z,5.47
2018-10-01T05:18:48.077Z,7.17
2018-10-01T05:21:17.894Z,8.40
2018-10-01T05:23:47.574Z,8.80
2018-10-01T05:26:17.286Z,8.97
2018-10-01T05:28:46.970Z,9.47
2018-10-01T05:31:16.868Z,8.77
2018-10-01T05:33:46.594Z,8.70
2018-10-01T05:36:16.465Z,8.77
2018-10-01T05:38:46.184Z,8.50
2018-10-01T05:41:17.112Z,12.33
2018-10-01T05:43:47.120Z,9.40
2018-10-01T05:46:17.823Z,10.67
2018-10-01T05:48:48.430Z,9.50
2018-10-01T05:51:18.145Z,10.07
2018-10-01T05:53:47.862Z,10.60
2018-10-01T05:56:17.598Z,9.93
2018-10-01T05:58:48.908Z,14.57
2018-10-01T06:01:19.909Z,15.07
2018-10-01T06:03:49.654Z,16.93
2018-10-01T06:06:19.754Z,18.17
2018-10-01T06:08:50.018Z,17.77
2018-10-01T06:11:19.788Z,18.60
2018-10-01T06:13:49.514Z,21.73
2018-10-01T06:16:20.015Z,18.73
2018-10-01T06:18:49.763Z,17.67
2018-10-01T06:21:19.523Z,13.50
2018-10-01T06:23:49.334Z,20.97
2018-10-01T06:26:19.064Z,16.00
2018-10-01T06:28:48.856Z,14.30
2018-10-01T06:31:18.541Z,18.70
2018-10-01T06:33:48.342Z,19.10
2018-10-01T06:36:18.095Z,16.50
2018-10-01T06:38:47.909Z,17.07
2018-10-01T06:41:17.768Z,16.87
2018-10-01T06:43:47.843Z,15.10
2018-10-01T06:46:17.570Z,17.83
2018-10-01T06:48:47.992Z,18.20
2018-10-01T06:51:17.876Z,18.87
2018-10-01T06:53:47.696Z,15.30
2018-10-01T06:56:19.654Z,19.67
2018-10-01T06:58:49.352Z,19.70
2018-10-01T07:01:19.149Z,15.43
2018-10-01T07:03:49.101Z,17.67
2018-10-01T07:06:18.890Z,17.13
2018-10-01T07:08:48.602Z,17.47
2018-10-01T07:11:19.415Z,15.93
2018-10-01T07:13:49.781Z,15.00
2018-10-01T07:16:20.444Z,10.73
2018-10-01T07:18:50.272Z,14.70
2018-10-01T07:21:20.050Z,12.10
2018-10-01T07:23:49.764Z,13.53
2018-10-01T07:26:19.522Z,15.03
2018-10-01T07:28:49.338Z,13.43
2018-10-01T07:31:20.001Z,11.87
2018-10-01T07:33:49.723Z,12.67
2018-10-01T07:36:19.431Z,13.83
2018-10-01T07:38:49.708Z,15.07
2018-10-01T07:41:19.504Z,12.27
2018-10-01T07:43:49.268Z,12.10
2018-10-01T07:46:19.128Z,12.30
2018-10-01T07:48:49.470Z,14.97
2018-10-01T07:51:19.240Z,13.17
2018-10-01T07:53:49.032Z,17.80
2018-10-01T07:56:19.022Z,13.73
2018-10-01T07:58:48.811Z,14.60
2018-10-01T08:01:18.702Z,12.60
2018-10-01T08:03:48.414Z,13.93
2018-10-01T08:06:19.109Z,15.80
2018-10-01T08:08:48.910Z,19.10
2018-10-01T08:11:18.650Z,13.07
2018-10-01T08:13:48.404Z,15.17
2018-10-01T08:16:19.229Z,15.27
2018-10-01T08:18:49.037Z,11.40
2018-10-01T08:21:18.741Z,10.10
2018-10-01T08:23:48.715Z,13.13
2018-10-01T08:26:18.541Z,13.63
2018-10-01T08:28:48.182Z,15.40
2018-10-01T08:31:17.965Z,14.13
2018-10-01T08:33:48.723Z,9.80
2018-10-01T08:36:18.551Z,14.13
2018-10-01T08:38:48.301Z,12.57
2018-10-01T08:41:18.129Z,13.93
2018-10-01T08:43:47.873Z,11.57
2018-10-01T08:46:17.663Z,13.23
2018-10-01T08:48:55.430Z,15.03
2018-10-01T08:52:29.499Z,13.57
2018-10-01T08:54:59.246Z,11.30
2018-10-01T08:57:29.011Z,15.60
2018-10-01T09:00:00.299Z,12.80
2018-10-01T09:02:30.205Z,14.83
2018-10-01T09:04:59.894Z,15.60
2018-10-01T09:07:29.690Z,14.13
2018-10-01T09:09:59.597Z,16.73
2018-10-01T09:12:29.341Z,16.20
2018-10-01T09:14:59.161Z,17.60
2018-10-01T09:17:29.630Z,17.23
2018-10-01T09:19:59.333Z,17.53
2018-10-01T09:22:29.123Z,21.10
2018-10-01T09:24:58.906Z,22.53
2018-10-01T09:27:30.284Z,18.87
2018-10-01T09:30:01.099Z,20.40
2018-10-01T09:32:31.283Z,18.93
2018-10-01T09:35:00.995Z,24.10
2018-10-01T09:37:30.830Z,18.40
2018-10-01T09:40:00.675Z,17.37
2018-10-01T09:42:30.562Z,16.00
2018-10-01T09:45:00.358Z,13.73
2018-10-01T09:47:30.435Z,12.88
2018-10-01T09:50:00.260Z,12.73
2018-10-01T09:52:30.246Z,14.57
2018-10-01T09:54:59.907Z,16.62
2018-10-01T09:57:30.696Z,15.58
2018-10-01T10:00:00.475Z,15.25
2018-10-01T10:02:30.295Z,16.73
2018-10-01T10:05:00.144Z,11.65
2018-10-01T10:07:29.885Z,14.07
2018-10-01T10:10:00.341Z,18.00
2018-10-01T10:12:30.169Z,15.13
2018-10-01T10:14:59.897Z,16.52
2018-10-01T10:17:29.772Z,14.58
2018-10-01T10:19:59.605Z,13.27
2018-10-01T10:22:29.402Z,16.33
2018-10-01T10:24:59.106Z,16.93
2018-10-01T10:27:28.899Z,14.23
2018-10-01T10:29:58.628Z,17.00
2018-10-01T10:32:28.431Z,15.63
2018-10-01T10:34:58.108Z,15.70
2018-10-01T10:37:27.844Z,19.73
2018-10-01T10:39:57.614Z,15.60
2018-10-01T10:42:27.303Z,14.63
2018-10-01T10:44:57.097Z,15.83
2018-10-01T10:47:26.820Z,17.12
2018-10-01T10:49:56.657Z,15.40
2018-10-01T10:52:26.279Z,15.03
2018-10-01T10:54:56.217Z,17.63
2018-10-01T10:57:26.194Z,12.60
2018-10-01T10:59:55.915Z,15.10
2018-10-01T11:02:25.933Z,16.90
2018-10-01T11:04:55.613Z,16.07
2018-10-01T11:07:25.396Z,13.70
2018-10-01T11:09:55.269Z,13.90
2018-10-01T11:12:25.180Z,17.67
2018-10-01T11:14:55.069Z,20.73
2018-10-01T11:17:24.824Z,17.87
2018-10-01T11:19:55.127Z,17.40
2018-10-01T11:22:24.803Z,17.40
2018-10-01T11:24:54.666Z,18.73
2018-10-01T11:27:24.866Z,15.57
2018-10-01T11:29:54.378Z,17.33
2018-10-01T11:32:24.143Z,18.50
2018-10-01T11:34:54.121Z,17.30
2018-10-01T11:37:23.862Z,17.33
2018-10-01T11:39:53.612Z,16.90
2018-10-01T11:42:23.476Z,17.83
2018-10-01T11:44:53.227Z,14.23
2018-10-01T11:47:23.133Z,20.00
2018-10-01T11:49:53.415Z,17.73
2018-10-01T11:52:23.248Z,15.07
2018-10-01T11:54:52.978Z,18.23
2018-10-01T11:57:22.724Z,18.13
2018-10-01T11:59:53.330Z,20.43
2018-10-01T12:02:23.186Z,18.30
2018-10-01T12:04:53.036Z,18.70
2018-10-01T12:07:22.796Z,17.00
2018-10-01T12:09:53.027Z,18.07
2018-10-01T12:12:22.705Z,18.20
2018-10-01T12:14:52.661Z,21.60
2018-10-01T12:17:22.423Z,15.77
2018-10-01T12:19:52.174Z,17.77
2018-10-01T12:22:21.907Z,19.93
2018-10-01T12:24:51.678Z,21.20
2018-10-01T12:27:21.452Z,19.00
2018-10-01T12:29:51.277Z,19.60
2018-10-01T12:32:21.182Z,21.13
2018-10-01T12:34:51.153Z,24.93
2018-10-01T12:37:20.868Z,18.57
2018-10-01T12:39:50.582Z,19.70
2018-10-01T12:42:20.391Z,20.90
2018-10-01T12:44:50.241Z,18.97
2018-10-01T12:47:20.055Z,19.47
2018-10-01T12:49:49.778Z,20.20
2018-10-01T12:52:19.514Z,22.30
2018-10-01T12:54:49.297Z,21.10
2018-10-01T12:57:19.330Z,19.63
2018-10-01T12:59:48.800Z,20.77
2018-10-01T13:02:19.536Z,21.50
2018-10-01T13:04:49.307Z,22.97
2018-10-01T13:07:19.078Z,21.13
2018-10-01T13:09:48.889Z,22.43
2018-10-01T13:12:18.767Z,22.53
2018-10-01T13:14:48.394Z,22.53
2018-10-01T13:17:18.142Z,25.30
2018-10-01T13:19:48.562Z,23.93
2018-10-01T13:22:18.322Z,22.23
2018-10-01T13:24:48.140Z,23.97
2018-10-01T13:27:17.798Z,21.63
2018-10-01T13:29:48.156Z,23.97
2018-10-01T13:32:17.927Z,22.33
2018-10-01T13:34:47.978Z,25.30
2018-10-01T13:37:17.762Z,21.27
2018-10-01T13:39:47.519Z,22.43
2018-10-01T13:42:17.333Z,23.43
2018-10-01T13:44:47.091Z,25.97
2018-10-01T13:47:16.863Z,25.17
2018-10-01T13:49:47.822Z,28.40
2018-10-01T13:52:17.975Z,25.83
2018-10-01T13:54:47.742Z,28.10
2018-10-01T13:57:17.737Z,31.30
2018-10-01T13:59:47.562Z,28.57
2018-10-01T14:02:17.447Z,27.30
2018-10-01T14:04:47.192Z,27.70
2018-10-01T14:07:17.327Z,36.47
2018-10-01T14:09:46.942Z,34.70
2018-10-01T14:12:16.955Z,29.37
2018-10-01T14:14:46.651Z,28.80
2018-10-01T14:17:16.464Z,26.07
2018-10-01T14:19:46.376Z,25.37
2018-10-01T14:22:16.095Z,30.07
2018-10-01T14:24:45.843Z,34.90
2018-10-01T14:27:15.807Z,25.77
2018-10-01T14:29:45.538Z,26.80
2018-10-01T14:32:16.495Z,28.60
2018-10-01T14:34:46.208Z,26.27
2018-10-01T14:37:16.122Z,28.90
2018-10-01T14:39:45.914Z,28.97
2018-10-01T14:42:15.820Z,29.17
2018-10-01T14:44:45.633Z,29.67
2018-10-01T14:47:15.447Z,28.50
2018-10-01T14:49:45.194Z,24.20
2018-10-01T14:52:15.107Z,23.80
2018-10-01T14:54:44.984Z,28.03
2018-10-01T14:57:14.970Z,29.60
2018-10-01T14:59:45.568Z,26.50
2018-10-01T15:02:15.379Z,29.53
2018-10-01T15:04:45.160Z,28.23
2018-10-01T15:07:14.894Z,30.93
2018-10-01T15:09:45.840Z,27.98
2018-10-01T15:12:16.446Z,24.90
2018-10-01T15:14:46.112Z,24.70
2018-10-01T15:17:15.906Z,29.25
2018-10-01T15:19:45.716Z,26.25
2018-10-01T15:22:15.685Z,27.37
2018-10-01T15:24:45.450Z,25.10
2018-10-01T15:27:15.168Z,22.73
2018-10-01T15:29:47.090Z,21.10
2018-10-01T15:32:17.852Z,28.03
2018-10-01T15:34:47.744Z,24.03
2018-10-01T15:37:17.513Z,23.17
2018-10-01T15:39:47.379Z,21.50
2018-10-01T15:42:17.111Z,21.50
2018-10-01T15:44:47.023Z,22.10
2018-10-01T15:47:16.781Z,21.13
2018-10-01T15:49:46.578Z,22.40
2018-10-01T15:52:16.323Z,21.77
2018-10-01T15:54:46.406Z,22.03
2018-10-01T15:57:16.214Z,25.20
2018-10-01T15:59:46.010Z,20.97
2018-10-01T16:02:15.754Z,23.57
2018-10-01T16:04:45.545Z,30.63
2018-10-01T16:07:15.482Z,25.03
2018-10-01T16:09:45.389Z,20.40
2018-10-01T16:12:15.143Z,22.13
2018-10-01T16:14:44.918Z,18.00
2018-10-01T16:17:14.726Z,19.57
2018-10-01T16:19:44.519Z,20.67
2018-10-01T16:22:14.256Z,19.87
2018-10-01T16:24:44.029Z,19.53
2018-10-01T16:27:13.829Z,31.23
2018-10-01T16:29:43.611Z,20.00
2018-10-01T16:32:13.488Z,16.73
2018-10-01T16:34:43.236Z,21.47
2018-10-01T16:37:13.119Z,20.40
2018-10-01T16:39:42.988Z,15.50
2018-10-01T16:42:12.802Z,19.27
2018-10-01T16:44:42.677Z,16.70
2018-10-01T16:47:12.531Z,17.43
2018-10-01T16:49:43.290Z,18.77
2018-10-01T16:52:13.059Z,15.27
2018-10-01T16:54:43.505Z,14.70
2018-10-01T16:57:13.325Z,16.57
2018-10-01T16:59:43.662Z,18.87
2018-10-01T17:02:13.401Z,16.30
2018-10-01T17:04:43.239Z,17.13
2018-10-01T17:07:13.023Z,19.73
2018-10-01T17:09:42.882Z,16.57
2018-10-01T17:12:12.645Z,25.10
2018-10-01T17:14:42.519Z,26.53
2018-10-01T17:17:12.278Z,18.07
2018-10-01T17:19:42.071Z,21.30
2018-10-01T17:22:11.960Z,16.70
2018-10-01T17:24:41.796Z,16.80
2018-10-01T17:27:11.698Z,31.77
2018-10-01T17:29:42.575Z,35.73
2018-10-01T17:32:12.366Z,25.30
2018-10-01T17:34:42.267Z,16.23
2018-10-01T17:37:12.008Z,17.50
2018-10-01T17:39:41.853Z,13.03
2018-10-01T17:42:11.616Z,15.60
2018-10-01T17:44:41.467Z,10.55
2018-10-01T17:47:11.245Z,12.75
2018-10-01T17:49:41.565Z,18.10
2018-10-01T17:52:11.412Z,11.43
2018-10-01T17:54:41.154Z,10.70
2018-10-01T17:57:10.942Z,9.68
2018-10-01T17:59:40.779Z,11.97
2018-10-01T18:02:10.852Z,13.70
2018-10-01T18:04:40.662Z,15.28
2018-10-01T18:07:10.457Z,14.00
2018-10-01T18:09:40.210Z,12.20
2018-10-01T18:12:10.019Z,11.68
2018-10-01T18:14:39.746Z,12.15
2018-10-01T18:17:09.530Z,12.88
2018-10-01T18:19:39.267Z,12.70
2018-10-01T18:22:09.048Z,13.23
2018-10-01T18:24:38.838Z,11.63
2018-10-01T18:27:08.754Z,14.80
2018-10-01T18:29:38.603Z,12.20
2018-10-01T18:32:08.553Z,11.33
2018-10-01T18:34:38.307Z,15.08
2018-10-01T18:37:08.089Z,15.10
2018-10-01T18:39:38.015Z,13.50
2018-10-01T18:42:07.909Z,14.65
2018-10-01T18:44:37.738Z,12.18
2018-10-01T18:47:07.591Z,11.08
2018-10-01T18:49:37.836Z,10.93
2018-10-01T18:52:07.618Z,10.90
2018-10-01T18:54:37.429Z,12.03
2018-10-01T18:57:07.391Z,10.20
2018-10-01T18:59:37.284Z,11.60
2018-10-01T19:02:07.171Z,9.68
2018-10-01T19:04:36.939Z,9.83
2018-10-01T19:07:06.749Z,9.23
2018-10-01T19:09:36.600Z,10.90
2018-10-01T19:12:06.716Z,10.97
2018-10-01T19:14:36.447Z,8.33
2018-10-01T19:17:06.419Z,11.90
2018-10-01T19:19:36.343Z,11.75
2018-10-01T19:22:06.114Z,11.83
2018-10-01T19:24:35.951Z,11.38
2018-10-01T19:27:05.797Z,8.73
2018-10-01T19:29:35.594Z,13.35
2018-10-01T19:32:05.333Z,9.65
2018-10-01T19:34:35.295Z,12.10
2018-10-01T19:37:05.107Z,16.57
2018-10-01T19:39:34.869Z,11.68
2018-10-01T19:42:04.716Z,11.55
2018-10-01T19:44:34.481Z,15.25
2018-10-01T19:47:04.346Z,12.47
2018-10-01T19:49:34.197Z,9.93
2018-10-01T19:52:04.189Z,9.27
2018-10-01T19:54:34.113Z,16.87
2018-10-01T19:57:04.053Z,7.97
2018-10-01T19:59:33.945Z,10.75
2018-10-01T20:02:03.802Z,11.00
2018-10-01T20:04:33.653Z,7.75
2018-10-01T20:07:03.402Z,7.87
2018-10-01T20:09:33.269Z,8.73
2018-10-01T20:12:03.276Z,9.88
2018-10-01T20:14:33.148Z,8.73
2018-10-01T20:17:03.077Z,8.70
2018-10-01T20:19:32.752Z,10.90
2018-10-01T20:22:02.602Z,9.37
2018-10-01T20:24:32.463Z,9.00
2018-10-01T20:27:02.319Z,9.93
2018-10-01T20:29:32.336Z,7.78
2018-10-01T20:32:02.190Z,9.10
2018-10-01T20:34:32.107Z,10.72
2018-10-01T20:37:02.439Z,9.90
2018-10-01T20:39:32.940Z,8.33
2018-10-01T20:42:02.913Z,12.23
2018-10-01T20:44:32.582Z,7.83
2018-10-01T20:47:02.517Z,10.58
2018-10-01T20:49:32.200Z,9.33
2018-10-01T20:52:01.988Z,14.20
2018-10-01T20:54:31.717Z,11.00
2018-10-01T20:57:01.513Z,11.03
2018-10-01T20:59:31.565Z,10.13
2018-10-01T21:02:01.528Z,11.53
2018-10-01T21:04:31.346Z,9.73
2018-10-01T21:07:01.255Z,9.67
2018-10-01T21:09:31.053Z,12.05
2018-10-01T21:12:00.871Z,10.10
2018-10-01T21:14:30.787Z,9.85
2018-10-01T21:17:00.597Z,11.03
2018-10-01T21:19:30.448Z,16.00
2018-10-01T21:22:00.206Z,11.97
2018-10-01T21:24:30.061Z,10.78
2018-10-01T21:26:59.843Z,11.63
2018-10-01T21:29:29.632Z,10.48
2018-10-01T21:31:59.334Z,11.40
2018-10-01T21:34:29.106Z,11.78
2018-10-01T21:36:58.882Z,11.63
2018-10-01T21:40:08.799Z,14.23
2018-10-01T21:42:38.615Z,13.38
2018-10-01T21:45:09.124Z,15.23
2018-10-01T21:47:39.028Z,14.25
2018-10-01T21:50:09.136Z,14.45
2018-10-01T21:52:38.966Z,14.28
2018-10-01T21:55:08.772Z,13.18
2018-10-01T21:57:38.574Z,14.07
2018-10-01T22:00:10.150Z,17.32
2018-10-01T22:02:39.897Z,15.03
2018-10-01T22:05:09.719Z,17.77
2018-10-01T22:07:39.492Z,14.20
2018-10-01T22:10:09.237Z,16.05
2018-10-01T22:12:38.958Z,15.98
2018-10-01T22:15:08.834Z,13.88
2018-10-01T22:17:38.850Z,15.05
2018-10-01T22:20:08.566Z,17.48
2018-10-01T22:22:38.345Z,13.68
2018-10-01T22:25:08.123Z,13.03
2018-10-01T22:27:37.869Z,10.40
2018-10-01T22:30:07.739Z,11.70
2018-10-01T22:32:37.746Z,11.45
2018-10-01T22:35:07.558Z,11.93
2018-10-01T22:37:37.452Z,13.33
2018-10-01T22:40:07.286Z,10.15
2018-10-01T22:42:37.045Z,11.45
2018-10-01T22:45:06.899Z,9.78
2018-10-01T22:47:36.706Z,8.00
2018-10-01T22:50:06.595Z,7.75
2018-10-01T22:52:36.314Z,12.23
2018-10-01T22:55:06.367Z,7.55
2018-10-01T22:57:36.153Z,9.28
2018-10-01T23:00:05.885Z,6.58
2018-10-01T23:02:35.632Z,8.33
2018-10-01T23:05:05.914Z,7.45
2018-10-01T23:07:35.667Z,5.65
2018-10-01T23:10:05.531Z,7.80
2018-10-01T23:12:35.330Z,8.13
2018-10-01T23:15:05.340Z,6.17
2018-10-01T23:17:35.039Z,5.60
2018-10-01T23:20:04.891Z,6.78
2018-10-01T23:22:34.717Z,6.17
2018-10-01T23:25:04.443Z,5.90
2018-10-01T23:27:34.199Z,6.00
2018-10-01T23:30:03.893Z,9.93
2018-10-01T23:32:33.703Z,6.08
2018-10-01T23:35:03.559Z,5.92
2018-10-01T23:37:33.356Z,5.50
2018-10-01T23:40:03.191Z,6.60
2018-10-01T23:42:32.955Z,7.40
2018-10-01T23:45:02.730Z,6.25
2018-10-01T23:47:32.482Z,5.85
2018-10-01T23:50:02.180Z,6.20
2018-10-01T23:52:31.901Z,12.30
2018-10-01T23:55:01.643Z,7.20
2018-10-01T23:57:31.377Z,6.17
